createdAt,value
2022-12-18T00:00:24.327Z,-6.80
2022-12-18T00:02:52.879Z,-6.90
2022-12-18T00:05:22.805Z,-6.90
2022-12-18T00:07:51.337Z,-6.90
2022-12-18T00:10:22.779Z,-6.80
2022-12-18T00:12:51.322Z,-6.80
2022-12-18T00:15:19.875Z,-6.90
2022-12-18T00:17:48.389Z,-7.00
2022-12-18T00:20:21.960Z,-7.00
2022-12-18T00:22:52.046Z,-7.00
2022-12-18T00:25:20.747Z,-7.10
2022-12-18T00:27:49.399Z,-7.20
2022-12-18T00:30:18.048Z,-7.20
2022-12-18T00:32:46.557Z,-7.20
2022-12-18T00:35:15.187Z,-7.20
2022-12-18T00:37:43.760Z,-7.10
2022-12-18T00:40:14.920Z,-7.10
2022-12-18T00:42:57.449Z,-7.10
2022-12-18T00:45:29.685Z,-7.10
2022-12-18T00:47:58.616Z,-7.10
2022-12-18T00:50:28.132Z,-7.10
2022-12-18T00:52:56.627Z,-7.10
2022-12-18T00:55:26.687Z,-7.10
2022-12-18T00:57:55.206Z,-7.10
2022-12-18T01:00:24.366Z,-7.10
2022-12-18T01:02:52.968Z,-7.10
2022-12-18T01:05:21.776Z,-7.00
2022-12-18T01:07:50.417Z,-6.90
2022-12-18T01:10:19.127Z,-6.90
2022-12-18T01:12:49.350Z,-6.80
2022-12-18T01:15:18.607Z,-6.80
2022-12-18T01:17:47.188Z,-6.70
2022-12-18T01:20:16.127Z,-6.80
2022-12-18T01:22:44.688Z,-6.80
2022-12-18T01:25:13.229Z,-6.80
2022-12-18T01:27:41.777Z,-6.80
2022-12-18T01:30:12.887Z,-6.90
2022-12-18T01:32:42.148Z,-7.00
2022-12-18T01:35:10.957Z,-7.00
2022-12-18T01:37:39.540Z,-7.00
2022-12-18T01:40:09.647Z,-6.90
2022-12-18T01:42:38.277Z,-6.90
2022-12-18T01:45:26.029Z,-6.90
2022-12-18T01:47:57.236Z,-6.80
2022-12-18T01:50:29.599Z,-6.80
2022-12-18T01:53:01.438Z,-6.90
2022-12-18T01:55:34.458Z,-6.80
2022-12-18T01:58:03.487Z,-6.80
2022-12-18T02:00:33.958Z,-6.80
2022-12-18T02:03:02.572Z,-6.80
2022-12-18T02:05:41.394Z,-6.70
2022-12-18T02:08:14.520Z,-6.70
2022-12-18T02:10:50.528Z,-6.80
2022-12-18T02:13:26.329Z,-6.80
2022-12-18T02:16:03.871Z,-6.80
2022-12-18T02:18:37.584Z,-6.70
2022-12-18T02:21:15.478Z,-6.70
2022-12-18T02:23:54.897Z,-6.70
2022-12-18T02:26:29.747Z,-6.50
2022-12-18T02:29:03.437Z,-6.50
2022-12-18T02:31:37.276Z,-6.50
2022-12-18T02:34:09.247Z,-6.50
2022-12-18T02:36:41.287Z,-6.60
2022-12-18T02:39:12.986Z,-6.70
2022-12-18T02:41:43.069Z,-6.70
2022-12-18T02:44:13.537Z,-6.60
2022-12-18T02:46:45.027Z,-6.60
2022-12-18T02:49:23.320Z,-6.70
2022-12-18T02:51:56.067Z,-6.70
2022-12-18T02:54:40.447Z,-6.60
2022-12-18T02:57:19.578Z,-6.60
2022-12-18T02:59:57.956Z,-6.70
2022-12-18T03:02:32.837Z,-6.70
2022-12-18T03:05:07.278Z,-6.70
2022-12-18T03:07:40.988Z,-6.60
2022-12-18T03:10:13.786Z,-6.60
2022-12-18T03:12:49.106Z,-6.60
2022-12-18T03:15:21.912Z,-6.50
2022-12-18T03:17:57.121Z,-6.40
2022-12-18T03:20:28.097Z,-6.40
2022-12-18T03:23:02.367Z,-6.50
2022-12-18T03:25:32.659Z,-6.60
2022-12-18T03:28:05.789Z,-6.70
2022-12-18T03:30:36.013Z,-6.80
2022-12-18T03:33:09.910Z,-6.90
2022-12-18T03:35:42.017Z,-6.90
2022-12-18T03:38:11.571Z,-7.00
2022-12-18T03:40:49.457Z,-7.10
2022-12-18T03:43:27.667Z,-7.10
2022-12-18T03:46:04.293Z,-7.00
2022-12-18T03:48:38.848Z,-7.00
2022-12-18T03:51:12.237Z,-7.10
2022-12-18T03:53:46.717Z,-7.10
2022-12-18T03:56:19.115Z,-7.20
2022-12-18T03:58:50.247Z,-7.20
2022-12-18T04:01:20.897Z,-7.20
2022-12-18T04:03:51.613Z,-7.20
2022-12-18T04:06:20.859Z,-7.20
2022-12-18T04:08:49.857Z,-7.20
2022-12-18T04:11:18.881Z,-7.20
2022-12-18T04:13:48.794Z,-7.20
2022-12-18T04:16:17.372Z,-7.20
2022-12-18T04:18:45.996Z,-7.20
2022-12-18T04:21:14.747Z,-7.20
2022-12-18T04:23:43.394Z,-7.30
2022-12-18T04:26:11.938Z,-7.30
2022-12-18T04:28:40.477Z,-7.30
2022-12-18T04:31:10.574Z,-7.30
2022-12-18T04:33:39.613Z,-7.30
2022-12-18T04:36:08.947Z,-7.30
2022-12-18T04:38:37.438Z,-7.30
2022-12-18T04:41:06.231Z,-7.30
2022-12-18T04:43:35.136Z,-7.30
2022-12-18T04:46:07.953Z,-7.40
2022-12-18T04:48:38.706Z,-7.40
2022-12-18T04:51:07.738Z,-7.40
2022-12-18T04:53:36.472Z,-7.40
2022-12-18T04:56:07.218Z,-7.40
2022-12-18T04:58:35.678Z,-7.30
2022-12-18T05:01:05.371Z,-7.30
2022-12-18T05:03:34.009Z,-7.30
2022-12-18T05:06:04.107Z,-7.20
2022-12-18T05:08:32.789Z,-7.20
2022-12-18T05:11:02.248Z,-7.20
2022-12-18T05:13:31.176Z,-7.10
2022-12-18T05:15:59.898Z,-7.20
2022-12-18T05:18:29.030Z,-7.20
2022-12-18T05:20:57.738Z,-7.20
2022-12-18T05:23:28.367Z,-7.20
2022-12-18T05:25:58.517Z,-7.30
2022-12-18T05:28:29.266Z,-7.20
2022-12-18T05:30:59.771Z,-7.20
2022-12-18T05:33:29.690Z,-7.20
2022-12-18T05:35:59.699Z,-7.20
2022-12-18T05:38:30.831Z,-7.20
2022-12-18T05:41:02.526Z,-7.20
2022-12-18T05:43:31.438Z,-7.20
2022-12-18T05:45:59.917Z,-7.20
2022-12-18T05:48:28.357Z,-7.20
2022-12-18T05:50:57.497Z,-7.20
2022-12-18T05:53:26.018Z,-7.20
2022-12-18T05:55:55.932Z,-7.20
2022-12-18T05:58:24.427Z,-7.20
2022-12-18T06:00:52.950Z,-7.20
2022-12-18T06:03:21.556Z,-7.20
2022-12-18T06:05:50.397Z,-7.30
2022-12-18T06:08:18.917Z,-7.20
2022-12-18T06:10:54.030Z,-7.20
2022-12-18T06:13:23.907Z,-7.10
2022-12-18T06:15:52.398Z,-6.90
2022-12-18T06:18:20.972Z,-6.80
2022-12-18T06:20:57.981Z,-6.70
2022-12-18T06:23:26.768Z,-6.70
2022-12-18T06:25:55.498Z,-6.60
2022-12-18T06:28:25.338Z,-6.60
2022-12-18T06:30:54.178Z,-6.70
2022-12-18T06:33:22.697Z,-6.70
2022-12-18T06:35:51.236Z,-6.80
2022-12-18T06:38:19.887Z,-6.90
2022-12-18T06:40:48.347Z,-6.90
2022-12-18T06:43:16.809Z,-7.00
2022-12-18T06:45:47.487Z,-7.00
2022-12-18T06:48:15.998Z,-7.10
2022-12-18T06:50:45.038Z,-7.10
2022-12-18T06:53:13.607Z,-7.20
2022-12-18T06:55:42.108Z,-7.20
2022-12-18T06:58:10.807Z,-7.30
2022-12-18T07:00:40.096Z,-7.30
2022-12-18T07:03:10.056Z,-7.30
2022-12-18T07:05:42.387Z,-7.20
2022-12-18T07:08:10.635Z,-7.20
2022-12-18T07:10:47.553Z,-7.20
2022-12-18T07:13:17.667Z,-7.20
2022-12-18T07:15:46.567Z,-7.30
2022-12-18T07:18:16.477Z,-7.30
2022-12-18T07:20:45.267Z,-7.40
2022-12-18T07:23:14.471Z,-7.40
2022-12-18T07:25:42.967Z,-7.50
2022-12-18T07:28:15.752Z,-7.60
2022-12-18T07:30:45.937Z,-7.60
2022-12-18T07:33:17.878Z,-7.70
2022-12-18T07:35:46.399Z,-7.70
2022-12-18T07:38:14.875Z,-7.70
2022-12-18T07:40:43.377Z,-7.70
2022-12-18T07:43:11.880Z,-7.80
2022-12-18T07:45:40.539Z,-7.80
2022-12-18T07:48:09.078Z,-7.80
2022-12-18T07:50:39.979Z,-7.90
2022-12-18T07:53:08.587Z,-8.00
2022-12-18T07:56:05.440Z,-8.00
2022-12-18T07:58:25.642Z,-8.10
2022-12-18T08:00:54.596Z,-8.20
2022-12-18T08:03:23.249Z,-8.20
2022-12-18T08:05:53.217Z,-8.20
2022-12-18T08:08:21.686Z,-8.20
2022-12-18T08:10:50.141Z,-8.20
2022-12-18T08:13:18.788Z,-8.10
2022-12-18T08:15:47.268Z,-8.00
2022-12-18T08:18:15.698Z,-7.90
2022-12-18T08:20:44.301Z,-7.90
2022-12-18T08:23:14.177Z,-7.80
2022-12-18T08:25:42.657Z,-7.80
2022-12-18T08:28:11.200Z,-7.70
2022-12-18T08:30:39.732Z,-7.60
2022-12-18T08:33:08.887Z,-7.50
2022-12-18T08:35:44.039Z,-7.40
2022-12-18T08:38:15.436Z,-7.40
2022-12-18T08:40:43.999Z,-7.30
2022-12-18T08:43:30.727Z,-7.20
2022-12-18T08:45:59.726Z,-7.20
2022-12-18T08:48:28.308Z,-7.20
2022-12-18T08:50:57.900Z,-7.20
2022-12-18T08:53:31.498Z,-7.20
2022-12-18T08:56:04.287Z,-7.10
2022-12-18T08:58:32.899Z,-7.10
2022-12-18T09:01:03.914Z,-7.10
2022-12-18T09:03:32.684Z,-7.00
2022-12-18T09:06:01.778Z,-7.00
2022-12-18T09:08:32.046Z,-6.90
2022-12-18T09:11:00.528Z,-6.80
2022-12-18T09:13:29.087Z,-6.70
2022-12-18T09:15:58.068Z,-6.50
2022-12-18T09:18:26.758Z,-6.40
2022-12-18T09:20:55.277Z,-6.00
2022-12-18T09:23:24.377Z,-5.70
2022-12-18T09:25:54.728Z,-5.50
2022-12-18T09:28:23.293Z,-5.40
2022-12-18T09:30:51.959Z,-5.20
2022-12-18T09:33:20.478Z,-5.20
2022-12-18T09:35:49.597Z,-5.40
2022-12-18T09:38:19.591Z,-5.50
2022-12-18T09:40:50.838Z,-5.60
2022-12-18T09:43:23.947Z,-5.60
2022-12-18T09:45:56.025Z,-5.40
2022-12-18T09:48:28.487Z,-5.30
2022-12-18T09:50:59.048Z,-5.20
2022-12-18T09:53:33.006Z,-5.00
2022-12-18T09:56:04.197Z,-5.00
2022-12-18T09:58:38.723Z,-4.90
2022-12-18T10:01:14.351Z,-4.70
2022-12-18T10:03:43.321Z,-4.50
2022-12-18T10:06:18.054Z,-4.40
2022-12-18T10:08:54.580Z,-4.20
2022-12-18T10:11:37.018Z,-4.00
2022-12-18T10:14:14.227Z,-3.90
2022-12-18T10:16:51.038Z,-3.90
2022-12-18T10:19:29.818Z,-3.90
2022-12-18T10:22:06.507Z,-4.00
2022-12-18T10:24:41.460Z,-4.00
2022-12-18T10:27:17.226Z,-3.90
2022-12-18T10:29:49.311Z,-3.70
2022-12-18T10:32:20.638Z,-3.50
2022-12-18T10:34:52.947Z,-3.30
2022-12-18T10:37:31.075Z,-3.10
2022-12-18T10:40:21.986Z,-2.90
2022-12-18T10:43:07.176Z,-2.70
2022-12-18T10:45:37.299Z,-2.60
2022-12-18T10:48:07.000Z,-2.50
2022-12-18T10:51:09.854Z,-2.40
2022-12-18T10:53:29.499Z,-2.30
2022-12-18T10:56:04.520Z,-2.30
2022-12-18T10:58:35.047Z,-2.30
2022-12-18T11:01:09.188Z,-2.20
2022-12-18T11:03:39.503Z,-2.20
2022-12-18T11:06:11.097Z,-2.20
2022-12-18T11:08:41.291Z,-2.20
2022-12-18T11:11:20.732Z,-2.10
2022-12-18T11:14:00.889Z,-2.00
2022-12-18T11:16:33.754Z,-1.90
2022-12-18T11:19:23.641Z,-1.90
2022-12-18T11:21:52.960Z,-1.80
2022-12-18T11:24:29.576Z,-1.80
2022-12-18T11:27:00.119Z,-1.70
2022-12-18T11:29:36.459Z,-1.70
2022-12-18T11:32:32.427Z,-1.60
2022-12-18T11:35:13.427Z,-1.60
2022-12-18T11:37:45.007Z,-1.70
2022-12-18T11:40:18.465Z,-1.70
2022-12-18T11:42:54.608Z,-1.70
2022-12-18T11:45:29.579Z,-1.70
2022-12-18T11:48:06.868Z,-1.80
2022-12-18T11:50:47.276Z,-1.80
2022-12-18T11:53:16.490Z,-1.80
2022-12-18T11:55:54.169Z,-1.90
2022-12-18T11:58:38.867Z,-1.90
2022-12-18T12:01:18.589Z,-1.80
2022-12-18T12:04:06.332Z,-1.80
2022-12-18T12:06:46.359Z,-1.80
2022-12-18T12:09:21.902Z,-1.80
2022-12-18T12:12:04.038Z,-1.80
2022-12-18T12:14:45.315Z,-1.90
2022-12-18T12:17:22.587Z,-1.90
2022-12-18T12:20:00.748Z,-1.90
2022-12-18T12:22:40.619Z,-1.90
2022-12-18T12:25:22.477Z,-1.90
2022-12-18T12:28:01.402Z,-2.00
2022-12-18T12:30:42.031Z,-2.00
2022-12-18T12:33:24.837Z,-1.90
2022-12-18T12:36:01.857Z,-1.90
2022-12-18T12:38:36.916Z,-1.90
2022-12-18T12:41:29.065Z,-1.80
2022-12-18T12:43:59.715Z,-1.90
2022-12-18T12:46:29.177Z,-1.90
2022-12-18T12:49:00.552Z,-1.90
2022-12-18T12:51:34.548Z,-2.00
2022-12-18T12:54:07.036Z,-2.00
2022-12-18T12:56:44.931Z,-2.00
2022-12-18T12:59:18.391Z,-1.90
2022-12-18T13:01:56.773Z,-1.80
2022-12-18T13:04:33.848Z,-1.70
2022-12-18T13:07:09.846Z,-1.60
2022-12-18T13:10:19.130Z,-1.60
2022-12-18T13:12:57.937Z,-1.50
2022-12-18T13:15:36.495Z,-1.40
2022-12-18T13:18:21.467Z,-1.40
2022-12-18T13:20:58.323Z,-1.40
2022-12-18T13:23:37.656Z,-1.50
2022-12-18T13:26:31.597Z,-1.60
2022-12-18T13:29:00.818Z,-1.70
2022-12-18T13:32:08.868Z,-1.70
2022-12-18T13:34:38.299Z,-1.80
2022-12-18T13:37:42.488Z,-1.80
2022-12-18T13:40:56.629Z,-1.90
2022-12-18T13:43:43.892Z,-2.00
2022-12-18T13:46:25.799Z,-2.20
2022-12-18T13:49:02.853Z,-2.20
2022-12-18T13:51:34.987Z,-2.30
2022-12-18T13:54:09.263Z,-2.40
2022-12-18T13:56:47.011Z,-2.40
2022-12-18T13:59:23.003Z,-2.40
2022-12-18T14:01:57.307Z,-2.40
2022-12-18T14:04:31.202Z,-2.40
2022-12-18T14:07:06.798Z,-2.40
2022-12-18T14:09:40.473Z,-2.50
2022-12-18T14:12:34.762Z,-2.50
2022-12-18T14:15:10.270Z,-2.60
2022-12-18T14:17:39.336Z,-2.60
2022-12-18T14:20:16.617Z,-2.70
2022-12-18T14:22:47.427Z,-2.80
2022-12-18T14:25:21.987Z,-2.80
2022-12-18T14:27:53.787Z,-2.90
2022-12-18T14:30:32.937Z,-2.90
2022-12-18T14:33:06.464Z,-3.00
2022-12-18T14:35:36.570Z,-3.10
2022-12-18T14:38:20.567Z,-3.20
2022-12-18T14:40:49.757Z,-3.30
2022-12-18T14:43:23.689Z,-3.40
2022-12-18T14:45:54.655Z,-3.50
2022-12-18T14:48:28.030Z,-3.60
2022-12-18T14:51:04.382Z,-3.60
2022-12-18T14:53:40.418Z,-3.60
2022-12-18T14:56:19.647Z,-3.70
2022-12-18T14:58:54.228Z,-3.80
2022-12-18T15:01:30.390Z,-3.80
2022-12-18T15:04:01.009Z,-3.90
2022-12-18T15:06:36.091Z,-3.90
2022-12-18T15:09:07.954Z,-4.00
2022-12-18T15:11:49.248Z,-4.00
2022-12-18T15:14:38.234Z,-4.10
2022-12-18T15:17:17.299Z,-4.20
2022-12-18T15:19:48.001Z,-4.20
2022-12-18T15:22:29.088Z,-4.30
2022-12-18T15:24:58.912Z,-4.30
2022-12-18T15:27:33.418Z,-4.40
2022-12-18T15:30:21.265Z,-4.30
2022-12-18T15:32:51.986Z,-4.30
2022-12-18T15:35:23.607Z,-4.30
2022-12-18T15:37:53.669Z,-4.30
2022-12-18T15:40:25.449Z,-4.30
2022-12-18T15:43:13.882Z,-4.20
2022-12-18T15:45:42.398Z,-4.20
2022-12-18T15:48:22.854Z,-4.20
2022-12-18T15:50:52.888Z,-4.20
2022-12-18T15:53:22.113Z,-4.20
2022-12-18T15:56:08.514Z,-4.10
2022-12-18T15:58:39.180Z,-4.10
2022-12-18T16:01:10.779Z,-4.00
2022-12-18T16:03:41.577Z,-4.00
2022-12-18T16:06:12.808Z,-3.90
2022-12-18T16:08:41.702Z,-4.00
2022-12-18T16:11:39.201Z,-3.90
2022-12-18T16:14:19.230Z,-3.90
2022-12-18T16:16:48.419Z,-3.90
2022-12-18T16:19:18.757Z,-3.90
2022-12-18T16:21:50.024Z,-3.90
2022-12-18T16:24:20.467Z,-3.90
2022-12-18T16:26:49.793Z,-3.90
2022-12-18T16:29:18.419Z,-3.90
2022-12-18T16:31:47.497Z,-3.90
2022-12-18T16:34:23.623Z,-3.90
2022-12-18T16:36:58.977Z,-3.90
2022-12-18T16:39:33.295Z,-3.90
2022-12-18T16:42:05.302Z,-3.90
2022-12-18T16:44:35.047Z,-4.00
2022-12-18T16:47:05.037Z,-3.90
2022-12-18T16:49:36.862Z,-3.90
2022-12-18T16:52:06.205Z,-3.90
2022-12-18T16:54:35.258Z,-3.80
2022-12-18T16:57:07.807Z,-3.80
2022-12-18T16:59:36.591Z,-3.80
2022-12-18T17:02:05.628Z,-3.80
2022-12-18T17:04:35.723Z,-3.70
2022-12-18T17:07:04.966Z,-3.70
2022-12-18T17:09:33.691Z,-3.70
2022-12-18T17:12:04.561Z,-3.60
2022-12-18T17:14:35.307Z,-3.60
2022-12-18T17:17:20.817Z,-3.60
2022-12-18T17:19:53.624Z,-3.70
2022-12-18T17:22:23.525Z,-3.60
2022-12-18T17:24:52.139Z,-3.50
2022-12-18T17:27:21.097Z,-3.50
2022-12-18T17:29:49.739Z,-3.40
2022-12-18T17:32:18.754Z,-3.40
2022-12-18T17:34:47.692Z,-3.30
2022-12-18T17:37:18.218Z,-3.30
2022-12-18T17:39:47.078Z,-3.30
2022-12-18T17:42:16.712Z,-3.30
2022-12-18T17:44:46.005Z,-3.20
2022-12-18T17:47:16.039Z,-3.20
2022-12-18T17:49:48.287Z,-3.10
2022-12-18T17:52:21.963Z,-3.10
2022-12-18T17:54:51.384Z,-3.10
2022-12-18T17:57:20.247Z,-3.10
2022-12-18T17:59:49.336Z,-3.10
2022-12-18T18:02:19.051Z,-3.10
2022-12-18T18:04:50.681Z,-3.10
2022-12-18T18:07:20.999Z,-3.10
2022-12-18T18:09:49.911Z,-3.10
2022-12-18T18:12:50.617Z,-3.00
2022-12-18T18:15:19.138Z,-3.00
2022-12-18T18:17:47.925Z,-3.00
2022-12-18T18:20:22.535Z,-2.90
2022-12-18T18:22:53.557Z,-3.00
2022-12-18T18:25:22.847Z,-3.00
2022-12-18T18:27:52.714Z,-3.00
2022-12-18T18:30:22.088Z,-2.90
2022-12-18T18:32:51.127Z,-2.90
2022-12-18T18:35:52.302Z,-2.90
2022-12-18T18:38:12.707Z,-2.90
2022-12-18T18:40:41.666Z,-2.90
2022-12-18T18:43:10.224Z,-2.80
2022-12-18T18:45:39.514Z,-2.90
2022-12-18T18:48:10.492Z,-2.80
2022-12-18T18:50:39.537Z,-2.80
2022-12-18T18:53:08.245Z,-2.90
2022-12-18T18:55:38.980Z,-2.80
2022-12-18T18:58:08.855Z,-2.80
2022-12-18T19:00:37.637Z,-2.80
2022-12-18T19:03:07.057Z,-2.80
2022-12-18T19:05:36.480Z,-2.80
2022-12-18T19:08:05.478Z,-2.80
2022-12-18T19:10:34.545Z,-2.70
2022-12-18T19:13:22.269Z,-2.70
2022-12-18T19:15:54.317Z,-2.70
2022-12-18T19:18:27.177Z,-2.70
2022-12-18T19:21:01.108Z,-2.70
2022-12-18T19:23:30.907Z,-2.70
2022-12-18T19:26:27.036Z,-2.80
2022-12-18T19:28:52.803Z,-2.80
2022-12-18T19:31:29.220Z,-2.70
2022-12-18T19:34:04.489Z,-2.70
2022-12-18T19:36:34.369Z,-2.70
2022-12-18T19:39:10.413Z,-2.80
2022-12-18T19:41:41.708Z,-2.80
2022-12-18T19:44:13.860Z,-2.80
2022-12-18T19:46:43.342Z,-2.80
2022-12-18T19:49:16.267Z,-2.80
2022-12-18T19:51:47.367Z,-2.80
2022-12-18T19:54:18.880Z,-2.70
2022-12-18T19:56:48.049Z,-2.70
2022-12-18T19:59:20.958Z,-2.70
2022-12-18T20:01:50.669Z,-2.60
2022-12-18T20:04:20.054Z,-2.60
2022-12-18T20:06:50.572Z,-2.60
2022-12-18T20:09:19.670Z,-2.60
2022-12-18T20:11:49.574Z,-2.60
2022-12-18T20:14:22.993Z,-2.60
2022-12-18T20:16:52.647Z,-2.60
2022-12-18T20:19:22.310Z,-2.60
2022-12-18T20:21:51.838Z,-2.60
2022-12-18T20:24:20.988Z,-2.50
2022-12-18T20:26:49.910Z,-2.50
2022-12-18T20:29:20.220Z,-2.50
2022-12-18T20:31:49.454Z,-2.50
2022-12-18T20:34:18.619Z,-2.50
2022-12-18T20:36:48.018Z,-2.50
2022-12-18T20:39:18.116Z,-2.40
2022-12-18T20:41:48.238Z,-2.40
2022-12-18T20:44:22.616Z,-2.40
2022-12-18T20:46:53.773Z,-2.40
2022-12-18T20:49:25.974Z,-2.30
2022-12-18T20:52:00.089Z,-2.30
2022-12-18T20:54:29.754Z,-2.30
2022-12-18T20:56:59.058Z,-2.30
2022-12-18T20:59:29.383Z,-2.30
2022-12-18T21:01:58.967Z,-2.40
2022-12-18T21:04:28.209Z,-2.40
2022-12-18T21:07:02.370Z,-2.30
2022-12-18T21:09:37.549Z,-2.30
2022-12-18T21:12:25.805Z,-2.40
2022-12-18T21:14:58.707Z,-2.30
2022-12-18T21:17:29.049Z,-2.30
2022-12-18T21:19:59.999Z,-2.30
2022-12-18T21:22:30.277Z,-2.40
2022-12-18T21:25:02.935Z,-2.40
2022-12-18T21:27:32.127Z,-2.40
2022-12-18T21:30:03.299Z,-2.40
2022-12-18T21:32:33.608Z,-2.40
2022-12-18T21:35:02.300Z,-2.40
2022-12-18T21:37:30.787Z,-2.50
2022-12-18T21:39:59.318Z,-2.50
2022-12-18T21:42:45.497Z,-2.50
2022-12-18T21:45:15.574Z,-2.50
2022-12-18T21:47:44.151Z,-2.50
2022-12-18T21:50:12.947Z,-2.50
2022-12-18T21:52:41.690Z,-2.60
2022-12-18T21:55:10.738Z,-2.60
2022-12-18T21:57:40.302Z,-2.70
2022-12-18T22:00:18.415Z,-2.70
2022-12-18T22:03:17.584Z,-2.70
2022-12-18T22:05:38.312Z,-2.70
2022-12-18T22:08:07.663Z,-2.70
2022-12-18T22:10:36.556Z,-2.70
2022-12-18T22:13:05.407Z,-2.70
2022-12-18T22:15:34.000Z,-2.70
2022-12-18T22:18:04.028Z,-2.70
2022-12-18T22:20:32.578Z,-2.70
2022-12-18T22:23:06.253Z,-2.60
2022-12-18T22:25:36.482Z,-2.60
2022-12-18T22:28:26.001Z,-2.60
2022-12-18T22:30:56.370Z,-2.60
2022-12-18T22:33:29.913Z,-2.60
2022-12-18T22:35:58.767Z,-2.50
2022-12-18T22:38:27.345Z,-2.60
2022-12-18T22:40:56.578Z,-2.50
2022-12-18T22:43:25.156Z,-2.60
2022-12-18T22:45:53.776Z,-2.60
2022-12-18T22:48:22.559Z,-2.60
2022-12-18T22:50:55.984Z,-2.60
2022-12-18T22:53:28.289Z,-2.60
2022-12-18T22:56:02.357Z,-2.60
2022-12-18T22:58:30.866Z,-2.60
2022-12-18T23:00:59.297Z,-2.60
2022-12-18T23:03:28.085Z,-2.60
2022-12-18T23:06:05.756Z,-2.60
2022-12-18T23:08:34.612Z,-2.60
2022-12-18T23:11:03.848Z,-2.60
2022-12-18T23:13:33.597Z,-2.60
2022-12-18T23:16:02.344Z,-2.50
2022-12-18T23:18:30.848Z,-2.50
2022-12-18T23:20:59.328Z,-2.50
2022-12-18T23:23:29.607Z,-2.60
2022-12-18T23:26:03.178Z,-2.60
2022-12-18T23:28:33.563Z,-2.60
2022-12-18T23:31:06.999Z,-2.60
2022-12-18T23:33:35.678Z,-2.60
2022-12-18T23:36:05.521Z,-2.70
2022-12-18T23:38:36.438Z,-2.70
2022-12-18T23:41:09.171Z,-2.60
2022-12-18T23:43:38.508Z,-2.60
2022-12-18T23:46:12.965Z,-2.60
2022-12-18T23:48:41.916Z,-2.60
2022-12-18T23:51:14.177Z,-2.60
2022-12-18T23:53:44.557Z,-2.60
2022-12-18T23:56:14.738Z,-2.50
2022-12-18T23:58:44.388Z,-2.50
